Time;durP1;ratioP1;P1;durP2;ratioP2;P2;SDS_P1;SDS_P2;PMS_P1;PMS_P2;Temp;Humidity;BMP_temperature;BMP_pressure;BME280_temperature;BME280_humidity;BME280_pressure;Samples;Min_cycle;Max_cycle;Signal;HPM_P1;HPM_P2
2021/03/25 00:00:15;;;;;;;55.60;33.60;;;;;;;;;;6305043;22;20009;-77
2021/03/25 00:03:18;;;;;;;62.25;36.05;;;;;;;;;;6303789;22;20434;-77
2021/03/25 00:05:45;;;;;;;54.45;33.63;;;;;;;;;;6305107;22;20011;-77
2021/03/25 00:08:13;;;;;;;54.38;34.60;;;;;;;;;;6309234;22;20022;-77
2021/03/25 00:10:39;;;;;;;56.42;36.45;;;;;;;;;;6311146;22;20045;-77
2021/03/25 00:13:06;;;;;;;62.35;36.45;;;;;;;;;;6309303;22;20089;-77
2021/03/25 00:15:33;;;;;;;58.13;36.25;;;;;;;;;;6310794;22;20015;-77
2021/03/25 00:17:59;;;;;;;59.65;34.92;;;;;;;;;;6311151;22;20361;-77
2021/03/25 00:20:25;;;;;;;62.13;35.20;;;;;;;;;;6310567;22;20011;-77
2021/03/25 00:22:52;;;;;;;54.92;34.63;;;;;;;;;;6309835;22;20016;-77
2021/03/25 00:25:55;;;;;;;57.35;33.72;;;;;;;;;;6286052;22;20030;-77
2021/03/25 00:28:21;;;;;;;52.88;29.15;;;;;;;;;;6313207;22;20011;-77
2021/03/25 00:30:47;;;;;;;57.33;33.58;;;;;;;;;;6311295;22;20085;-78
2021/03/25 00:33:15;;;;;;;57.92;33.45;;;;;;;;;;6259406;22;20015;-77
2021/03/25 00:35:41;;;;;;;54.92;33.25;;;;;;;;;;6310591;22;20305;-78
2021/03/25 00:38:07;;;;;;;56.88;34.22;;;;;;;;;;6309136;22;20444;-77
2021/03/25 00:43:50;;;;;;;58.22;35.75;;;;;;;;;;6310958;22;20018;-77
2021/03/25 00:46:16;;;;;;;50.63;32.38;;;;;;;;;;6310256;22;20052;-78
2021/03/25 00:48:42;;;;;;;48.20;30.25;;;;;;;;;;6258087;22;20038;-78
2021/03/25 00:51:08;;;;;;;53.03;32.20;;;;;;;;;;6309037;22;20051;-78
2021/03/25 00:53:36;;;;;;;46.58;30.73;;;;;;;;;;6285123;22;20012;-77
2021/03/25 00:56:03;;;;;;;56.33;32.55;;;;;;;;;;6312323;22;20018;-77
2021/03/25 00:58:29;;;;;;;53.83;31.38;;;;;;;;;;6312097;22;20003;-77
2021/03/25 01:00:56;;;;;;;57.92;32.60;;;;;;;;;;6314489;22;20086;-77
2021/03/25 01:03:23;;;;;;;55.13;33.95;;;;;;;;;;6288002;22;20060;-77
2021/03/25 01:05:49;;;;;;;55.72;34.80;;;;;;;;;;6308718;22;20368;-77
2021/03/25 01:08:15;;;;;;;62.03;36.03;;;;;;;;;;6309939;22;20011;-78
2021/03/25 01:10:43;;;;;;;54.38;33.88;;;;;;;;;;6308782;22;20007;-78
2021/03/25 01:13:21;;;;;;;53.25;29.85;;;;;;;;;;6309127;22;20425;-77
2021/03/25 01:15:47;;;;;;;56.33;32.90;;;;;;;;;;6309388;22;20015;-77
2021/03/25 01:18:13;;;;;;;57.60;31.08;;;;;;;;;;6309651;22;20003;-78
2021/03/25 01:20:40;;;;;;;48.22;31.20;;;;;;;;;;6282159;22;20003;-77
2021/03/25 01:23:07;;;;;;;56.13;31.02;;;;;;;;;;6307982;22;20065;-78
2021/03/25 01:25:33;;;;;;;49.35;29.90;;;;;;;;;;6308236;22;20010;-77
2021/03/25 01:28:00;;;;;;;50.22;30.80;;;;;;;;;;6309460;22;20350;-78
2021/03/25 01:30:26;;;;;;;50.38;31.90;;;;;;;;;;6309742;22;20014;-77
2021/03/25 01:32:52;;;;;;;58.53;32.63;;;;;;;;;;6309861;22;20053;-78
2021/03/25 01:35:19;;;;;;;61.97;34.95;;;;;;;;;;6259533;22;20013;-78
2021/03/25 01:37:47;;;;;;;58.45;35.17;;;;;;;;;;6310003;22;20435;-78
2021/03/25 01:40:22;;;;;;;61.17;33.78;;;;;;;;;;6312126;22;20014;-77
2021/03/25 01:42:48;;;;;;;66.20;36.88;;;;;;;;;;6310920;22;20094;-77
2021/03/25 01:45:29;;;;;;;61.55;35.55;;;;;;;;;;6310836;22;20037;-77
2021/03/25 01:47:59;;;;;;;69.97;36.63;;;;;;;;;;6310878;22;20059;-77
2021/03/25 01:50:25;;;;;;;59.78;33.78;;;;;;;;;;6313295;22;20007;-77
2021/03/25 01:52:55;;;;;;;62.47;34.20;;;;;;;;;;6311803;22;20417;-77
2021/03/25 01:55:29;;;;;;;62.47;34.97;;;;;;;;;;6311108;22;20003;-77
2021/03/25 01:57:54;;;;;;;63.67;37.17;;;;;;;;;;6313964;22;20017;-77
2021/03/25 02:00:23;;;;;;;65.28;36.78;;;;;;;;;;6312141;22;20037;-77
2021/03/25 02:02:49;;;;;;;63.80;37.45;;;;;;;;;;6309940;22;20061;-78
2021/03/25 02:05:18;;;;;;;70.75;38.80;;;;;;;;;;6308825;22;20011;-78
2021/03/25 02:07:50;;;;;;;65.35;37.78;;;;;;;;;;6309749;22;20060;-78
2021/03/25 02:10:16;;;;;;;63.95;38.67;;;;;;;;;;6311399;22;20019;-77
2021/03/25 02:13:03;;;;;;;61.33;36.35;;;;;;;;;;6312724;22;20042;-77
2021/03/25 02:15:37;;;;;;;55.13;34.53;;;;;;;;;;6309793;22;20007;-77
2021/03/25 02:18:03;;;;;;;;;;;;;;;;;;6309241;22;20053;-77
2021/03/25 02:20:52;;;;;;;63.25;35.20;;;;;;;;;;6283700;22;20297;-77
2021/03/25 02:23:24;;;;;;;66.15;39.00;;;;;;;;;;6308587;22;20015;-78
2021/03/25 02:25:53;;;;;;;67.78;39.50;;;;;;;;;;6309828;22;19999;-78
2021/03/25 02:28:42;;;;;;;70.63;42.92;;;;;;;;;;6308576;22;20039;-78
2021/03/25 02:31:11;;;;;;;72.90;43.95;;;;;;;;;;6308976;22;20421;-76
2021/03/25 02:33:39;;;;;;;71.10;42.97;;;;;;;;;;6309727;22;20038;-77
2021/03/25 02:36:08;;;;;;;72.05;42.97;;;;;;;;;;6311530;22;20490;-77
2021/03/25 02:38:36;;;;;;;69.47;43.50;;;;;;;;;;6308774;22;20030;-76
2021/03/25 02:41:08;;;;;;;69.88;42.85;;;;;;;;;;6310812;22;20000;-76
2021/03/25 02:43:41;;;;;;;74.53;45.90;;;;;;;;;;6310564;22;20007;-76
2021/03/25 02:46:15;;;;;;;71.50;45.83;;;;;;;;;;6310901;22;20004;-76
2021/03/25 02:48:44;;;;;;;81.10;47.03;;;;;;;;;;6314086;22;20011;-77
2021/03/25 02:51:23;;;;;;;73.93;43.90;;;;;;;;;;6312849;22;19995;-76
2021/03/25 02:53:49;;;;;;;84.45;46.05;;;;;;;;;;6311357;22;20007;-76
2021/03/25 02:56:15;;;;;;;75.80;45.75;;;;;;;;;;6285187;22;20322;-75
2021/03/25 02:58:42;;;;;;;81.82;47.55;;;;;;;;;;6311049;22;20008;-76
2021/03/25 03:01:10;;;;;;;86.65;47.10;;;;;;;;;;6312390;22;20003;-76
2021/03/25 03:03:47;;;;;;;80.10;45.95;;;;;;;;;;6313434;22;20018;-76
2021/03/25 03:06:19;;;;;;;84.93;47.90;;;;;;;;;;6315991;22;20413;-76
2021/03/25 03:08:47;;;;;;;83.25;48.55;;;;;;;;;;6313736;22;20047;-77
2021/03/25 03:11:36;;;;;;;77.50;44.90;;;;;;;;;;6312739;22;20076;-76
2021/03/25 03:14:06;;;;;;;79.32;45.63;;;;;;;;;;6312712;22;20428;-76
2021/03/25 03:16:52;;;;;;;82.40;46.10;;;;;;;;;;6313647;22;20000;-76
2021/03/25 03:19:24;;;;;;;84.85;45.78;;;;;;;;;;6314194;22;20039;-76
2021/03/25 03:21:54;;;;;;;74.63;46.22;;;;;;;;;;6316626;22;20015;-77
2021/03/25 03:24:21;;;;;;;80.65;50.03;;;;;;;;;;6320221;22;20015;-76
2021/03/25 03:26:50;;;;;;;83.03;48.67;;;;;;;;;;6320070;22;20023;-77
2021/03/25 03:29:17;;;;;;;80.73;49.37;;;;;;;;;;6317402;22;20493;-76
2021/03/25 03:31:46;;;;;;;81.45;46.80;;;;;;;;;;6320103;22;19999;-76
2021/03/25 03:34:18;;;;;;;84.70;46.97;;;;;;;;;;6318013;22;20010;-77
2021/03/25 03:36:45;;;;;;;82.57;45.40;;;;;;;;;;6317308;22;20030;-77
2021/03/25 03:39:12;;;;;;;74.55;44.58;;;;;;;;;;6320081;22;20032;-77
2021/03/25 03:41:46;;;;;;;80.25;46.13;;;;;;;;;;6321407;22;20007;-76
2021/03/25 03:44:14;;;;;;;70.25;41.45;;;;;;;;;;6322284;22;20029;-76
2021/03/25 03:46:41;;;;;;;77.57;40.45;;;;;;;;;;6316680;22;20061;-77
2021/03/25 03:49:16;;;;;;;73.18;43.08;;;;;;;;;;6315678;22;20011;-77
2021/03/25 03:51:46;;;;;;;71.80;42.78;;;;;;;;;;6311569;22;20007;-76
2021/03/25 03:54:13;;;;;;;77.28;43.22;;;;;;;;;;6312885;22;20010;-76
2021/03/25 03:56:51;;;;;;;76.18;44.47;;;;;;;;;;6313706;22;20003;-76
2021/03/25 03:59:36;;;;;;;89.65;48.80;;;;;;;;;;6315533;22;19995;-75
2021/03/25 04:02:14;;;;;;;81.78;44.53;;;;;;;;;;6313315;22;20003;-76
2021/03/25 04:04:41;;;;;;;83.90;45.85;;;;;;;;;;6312270;22;20003;-76
2021/03/25 04:07:10;;;;;;;76.00;42.80;;;;;;;;;;6311284;22;20007;-77
2021/03/25 04:09:42;;;;;;;70.93;43.47;;;;;;;;;;6313262;22;20019;-76
2021/03/25 04:12:08;;;;;;;74.53;42.53;;;;;;;;;;6312061;22;20102;-77
2021/03/25 04:14:48;;;;;;;80.18;41.90;;;;;;;;;;6314035;22;20000;-76
2021/03/25 04:17:19;;;;;;;77.03;46.20;;;;;;;;;;6309378;22;20007;-76
2021/03/25 04:19:47;;;;;;;75.60;44.00;;;;;;;;;;6310944;22;19999;-77
2021/03/25 04:22:18;;;;;;;73.05;41.10;;;;;;;;;;6311026;22;20007;-77
2021/03/25 04:24:47;;;;;;;68.00;37.45;;;;;;;;;;6309775;22;20003;-76
2021/03/25 04:27:15;;;;;;;80.03;45.30;;;;;;;;;;6312562;22;20007;-76
2021/03/25 04:29:43;;;;;;;75.03;44.80;;;;;;;;;;6310587;22;20007;-76
2021/03/25 04:32:10;;;;;;;79.35;46.50;;;;;;;;;;6316196;22;20000;-76
2021/03/25 04:34:36;;;;;;;83.55;45.60;;;;;;;;;;6263060;22;20433;-76
2021/03/25 04:37:03;;;;;;;85.70;47.03;;;;;;;;;;6310844;22;20009;-77
2021/03/25 04:39:30;;;;;;;79.35;46.90;;;;;;;;;;6284314;22;20355;-76
2021/03/25 04:41:56;;;;;;;81.30;47.88;;;;;;;;;;6309916;22;20026;-76
2021/03/25 04:44:34;;;;;;;82.95;47.00;;;;;;;;;;6309855;22;20088;-76
2021/03/25 04:47:19;;;;;;;78.50;45.22;;;;;;;;;;6310864;22;20007;-77
2021/03/25 04:49:45;;;;;;;74.00;43.00;;;;;;;;;;6309350;22;20014;-77
2021/03/25 04:52:16;;;;;;;71.47;44.88;;;;;;;;;;6309232;22;20082;-77
2021/03/25 04:54:42;;;;;;;82.45;49.15;;;;;;;;;;6309414;22;20027;-76
2021/03/25 04:57:12;;;;;;;77.47;43.53;;;;;;;;;;6258720;22;20018;-76
2021/03/25 04:59:39;;;;;;;75.78;42.97;;;;;;;;;;6311844;22;19999;-77
2021/03/25 05:02:07;;;;;;;78.00;41.70;;;;;;;;;;6310139;22;20065;-76
2021/03/25 05:04:47;;;;;;;75.45;41.53;;;;;;;;;;6310888;22;20007;-76
2021/03/25 05:07:17;;;;;;;71.03;38.43;;;;;;;;;;6313365;22;20017;-77
2021/03/25 05:09:43;;;;;;;74.60;41.15;;;;;;;;;;6312742;22;20425;-76
2021/03/25 05:12:12;;;;;;;79.00;40.83;;;;;;;;;;6284521;22;20014;-77
2021/03/25 05:14:38;;;;;;;74.93;41.03;;;;;;;;;;6309693;22;19995;-76
2021/03/25 05:17:31;;;;;;;75.13;40.97;;;;;;;;;;6283519;22;20026;-77
2021/03/25 05:20:02;;;;;;;67.85;40.05;;;;;;;;;;6309268;22;20014;-76
2021/03/25 05:22:29;;;;;;;69.97;41.40;;;;;;;;;;6309150;22;20016;-76
2021/03/25 05:25:13;;;;;;;51.13;27.30;;;;;;;;;;6312577;22;20011;-76
2021/03/25 05:27:39;;;;;;;49.28;28.20;;;;;;;;;;6308667;22;20010;-77
2021/03/25 05:30:08;;;;;;;54.75;33.38;;;;;;;;;;6309442;22;20377;-77
2021/03/25 05:32:35;;;;;;;70.65;39.55;;;;;;;;;;6308172;22;20059;-77
2021/03/25 05:35:04;;;;;;;70.78;40.75;;;;;;;;;;6309898;22;19995;-76
2021/03/25 05:37:31;;;;;;;78.65;42.10;;;;;;;;;;6308652;22;20018;-77
2021/03/25 05:39:57;;;;;;;75.55;45.47;;;;;;;;;;6259021;22;20436;-76
2021/03/25 05:42:49;;;;;;;85.13;47.33;;;;;;;;;;6288069;22;20012;-77
2021/03/25 05:45:21;;;;;;;88.95;49.63;;;;;;;;;;6280697;22;20015;-76
2021/03/25 05:47:54;;;;;;;79.88;46.85;;;;;;;;;;6308467;22;20003;-77
2021/03/25 05:53:36;;;;;;;77.38;47.20;;;;;;;;;;6309786;22;20006;-77
2021/03/25 05:56:10;;;;;;;82.60;46.85;;;;;;;;;;6309786;22;20368;-77
2021/03/25 05:58:45;;;;;;;75.05;44.10;;;;;;;;;;6308689;22;20035;-77
2021/03/25 06:01:20;;;;;;;83.82;47.28;;;;;;;;;;6307843;22;20015;-77
2021/03/25 06:03:57;;;;;;;80.30;46.00;;;;;;;;;;6307873;22;20019;-77
2021/03/25 06:06:28;;;;;;;73.63;43.30;;;;;;;;;;6309220;22;20018;-77
2021/03/25 06:09:00;;;;;;;73.23;44.50;;;;;;;;;;6309327;22;20022;-77
2021/03/25 06:14:37;;;;;;;79.45;42.95;;;;;;;;;;6309022;22;20010;-77
2021/03/25 06:20:17;;;;;;;81.82;46.95;;;;;;;;;;6311047;22;20010;-77
2021/03/25 06:25:50;;;;;;;78.40;43.08;;;;;;;;;;6308911;22;19998;-78
2021/03/25 06:31:35;;;;;;;85.40;47.40;;;;;;;;;;6310046;22;20014;-76
2021/03/25 06:34:15;;;;;;;81.50;44.37;;;;;;;;;;6310292;22;20090;-77
2021/03/25 06:40:30;;;;;;;85.13;44.23;;;;;;;;;;6275426;22;20357;-77
2021/03/25 06:43:15;;;;;;;86.07;49.30;;;;;;;;;;6236860;22;20053;-76
2021/03/25 06:45:56;;;;;;;84.82;46.65;;;;;;;;;;6301670;22;20477;-77
2021/03/25 06:50:50;;;;;;;96.17;48.03;;;;;;;;;;6309035;22;20496;-77
2021/03/25 06:53:22;;;;;;;83.57;49.07;;;;;;;;;;6313422;22;20064;-77
2021/03/25 06:55:49;;;;;;;82.80;47.07;;;;;;;;;;6311465;22;19999;-76
2021/03/25 06:58:38;;;;;;;86.97;47.17;;;;;;;;;;6307643;22;20105;-77
2021/03/25 07:01:20;;;;;;;87.30;46.60;;;;;;;;;;6282828;22;20094;-77
2021/03/25 07:03:47;;;;;;;81.43;43.30;;;;;;;;;;6308844;22;20015;-77
2021/03/25 07:06:13;;;;;;;73.40;42.70;;;;;;;;;;6311097;22;20007;-77
2021/03/25 07:08:39;;;;;;;81.40;45.20;;;;;;;;;;6258192;22;20004;-77
2021/03/25 07:11:14;;;;;;;77.35;44.72;;;;;;;;;;6285241;22;20007;-77
2021/03/25 07:13:43;;;;;;;76.38;41.30;;;;;;;;;;6312569;22;20013;-77
2021/03/25 07:16:10;;;;;;;82.87;43.67;;;;;;;;;;6312696;22;20077;-78
2021/03/25 07:18:56;;;;;;;80.55;43.45;;;;;;;;;;6309709;22;20436;-77
2021/03/25 07:21:35;;;;;;;81.80;43.55;;;;;;;;;;6310535;22;20038;-78
2021/03/25 07:24:24;;;;;;;98.67;43.57;;;;;;;;;;6312420;22;20015;-77
2021/03/25 07:26:56;;;;;;;83.43;46.40;;;;;;;;;;6299248;22;20011;-77
2021/03/25 07:29:32;;;;;;;77.23;43.70;;;;;;;;;;6327241;22;20007;-78
2021/03/25 07:32:04;;;;;;;79.07;41.63;;;;;;;;;;6317081;22;20011;-78
2021/03/25 07:34:36;;;;;;;84.95;44.70;;;;;;;;;;6313589;22;20452;-78
2021/03/25 07:37:04;;;;;;;83.47;46.57;;;;;;;;;;6314052;22;20003;-79
2021/03/25 07:39:32;;;;;;;89.20;46.27;;;;;;;;;;6287071;22;20019;-78
2021/03/25 07:42:35;;;;;;;84.50;47.63;;;;;;;;;;6314910;22;20106;-78
2021/03/25 07:58:57;;;;;;;94.90;48.87;;;;;;;;;;6246752;22;894367;-78
2021/03/25 08:01:23;;;;;;;85.97;49.10;;;;;;;;;;6195005;23;20072;-79
2021/03/25 08:03:53;;;;;;;83.68;44.88;;;;;;;;;;6197811;22;20009;-78
2021/03/25 08:06:31;;;;;;;86.10;48.15;;;;;;;;;;6208308;23;20330;-79
2021/03/25 08:09:02;;;;;;;80.85;44.13;;;;;;;;;;6195026;23;20044;-79
2021/03/25 08:11:28;;;;;;;78.32;43.50;;;;;;;;;;6193965;22;20088;-78
2021/03/25 08:14:02;;;;;;;77.28;44.00;;;;;;;;;;6192287;22;20063;-79
2021/03/25 08:16:32;;;;;;;76.43;43.17;;;;;;;;;;6192986;22;20012;-79
2021/03/25 08:19:01;;;;;;;78.67;41.97;;;;;;;;;;6192679;22;20344;-79
2021/03/25 08:21:46;;;;;;;84.60;42.90;;;;;;;;;;6196793;22;20427;-78
2021/03/25 08:24:13;;;;;;;;;;;;;;;;;;6194570;22;20012;-79
2021/03/25 08:26:39;;;;;;;86.88;45.08;;;;;;;;;;6195282;23;19916;-79
2021/03/25 08:29:11;;;;;;;87.05;49.17;;;;;;;;;;6192014;22;20031;-79
2021/03/25 08:31:49;;;;;;;98.10;49.22;;;;;;;;;;6194069;23;20011;-79
2021/03/25 08:34:31;;;;;;;103.30;50.08;;;;;;;;;;6191699;22;20323;-79
2021/03/25 08:37:03;;;;;;;102.47;52.33;;;;;;;;;;6195543;23;20066;-78
2021/03/25 08:40:03;;;;;;;103.80;53.92;;;;;;;;;;6193179;22;20019;-79
2021/03/25 08:42:40;;;;;;;98.05;48.85;;;;;;;;;;6195259;22;20004;-78
2021/03/25 08:45:15;;;;;;;89.60;49.10;;;;;;;;;;6190705;22;20008;-79
2021/03/25 08:48:11;;;;;;;90.72;49.58;;;;;;;;;;6190130;22;20051;-78
2021/03/25 08:50:50;;;;;;;96.97;48.20;;;;;;;;;;6193252;23;20088;-79
2021/03/25 08:53:19;;;;;;;87.45;46.45;;;;;;;;;;6192221;22;20001;-78
2021/03/25 08:55:45;;;;;;;88.50;46.83;;;;;;;;;;6191174;22;19997;-79
2021/03/25 08:58:20;;;;;;;77.13;43.47;;;;;;;;;;6190292;22;20005;-78
2021/03/25 09:00:46;;;;;;;;;;;;;;;;;;6191933;23;20017;-78
2021/03/25 09:03:18;;;;;;;81.03;43.67;;;;;;;;;;6292373;22;19900;-78
2021/03/25 09:06:04;;;;;;;78.22;39.97;;;;;;;;;;6291673;22;20013;-78
2021/03/25 09:08:32;;;;;;;63.15;38.72;;;;;;;;;;6186334;22;20017;-79
2021/03/25 09:11:03;;;;;;;60.88;35.92;;;;;;;;;;6189469;23;19997;-78
2021/03/25 09:13:44;;;;;;;61.10;36.00;;;;;;;;;;6189004;22;20005;-78
2021/03/25 09:16:27;;;;;;;54.07;31.37;;;;;;;;;;6194112;22;20016;-78
2021/03/25 09:18:54;;;;;;;50.63;30.37;;;;;;;;;;6199660;23;20001;-78
2021/03/25 09:21:25;;;;;;;41.33;25.33;;;;;;;;;;6192513;22;20013;-79
2021/03/25 09:24:00;;;;;;;28.05;21.58;;;;;;;;;;6195045;22;20013;-79
2021/03/25 09:26:26;;;;;;;22.20;16.92;;;;;;;;;;6195472;22;20016;-78
2021/03/25 09:29:06;;;;;;;20.57;15.37;;;;;;;;;;6199235;22;20001;-78
2021/03/25 09:32:02;;;;;;;20.15;15.15;;;;;;;;;;6203006;23;19998;-79
2021/03/25 09:34:28;;;;;;;22.80;14.90;;;;;;;;;;6201935;23;19997;-79
2021/03/25 09:37:05;;;;;;;21.53;13.77;;;;;;;;;;6200964;22;20016;-80
2021/03/25 09:39:36;;;;;;;28.80;16.67;;;;;;;;;;6196357;22;20288;-78
2021/03/25 09:42:04;;;;;;;25.77;16.70;;;;;;;;;;6188344;23;20059;-79
2021/03/25 09:44:33;;;;;;;32.93;16.90;;;;;;;;;;6186342;22;20005;-79
2021/03/25 09:46:59;;;;;;;34.33;19.87;;;;;;;;;;6187104;22;20009;-79
2021/03/25 09:49:44;;;;;;;28.92;16.60;;;;;;;;;;6187328;22;20016;-79
2021/03/25 09:52:38;;;;;;;31.15;16.38;;;;;;;;;;6191774;22;20004;-78
2021/03/25 09:55:04;;;;;;;30.48;17.80;;;;;;;;;;6197576;22;20020;-79
2021/03/25 09:57:36;;;;;;;23.92;17.05;;;;;;;;;;6190284;22;20088;-79
2021/03/25 10:00:08;;;;;;;28.57;19.47;;;;;;;;;;6242828;22;20018;-78
2021/03/25 10:02:40;;;;;;;27.40;18.90;;;;;;;;;;6323563;22;20003;-79
2021/03/25 10:05:17;;;;;;;31.83;21.07;;;;;;;;;;6348586;22;20024;-79
2021/03/25 10:07:43;;;;;;;37.13;23.30;;;;;;;;;;6346181;22;20021;-79
2021/03/25 10:10:29;;;;;;;38.97;24.52;;;;;;;;;;6292390;22;20025;-79
2021/03/25 10:12:55;;;;;;;38.22;25.27;;;;;;;;;;6318633;22;20003;-78
2021/03/25 10:15:42;;;;;;;41.78;22.25;;;;;;;;;;6347889;22;19998;-78
2021/03/25 10:18:10;;;;;;;35.07;24.33;;;;;;;;;;6320588;22;20026;-78
2021/03/25 10:20:49;;;;;;;38.85;23.48;;;;;;;;;;6321628;22;20286;-78
2021/03/25 10:23:15;;;;;;;42.65;25.08;;;;;;;;;;6347755;22;19999;-79
2021/03/25 10:25:41;;;;;;;40.33;25.92;;;;;;;;;;6325422;22;20312;-78
2021/03/25 10:28:15;;;;;;;38.40;24.95;;;;;;;;;;6295277;22;20021;-78
2021/03/25 10:30:41;;;;;;;;;;;;;;;;;;6355148;22;20048;-78
2021/03/25 10:33:08;;;;;;;39.47;23.90;;;;;;;;;;6192359;23;19900;-79
2021/03/25 10:35:40;;;;;;;38.25;22.95;;;;;;;;;;6188415;22;20027;-79
2021/03/25 10:38:08;;;;;;;32.03;21.73;;;;;;;;;;6185555;22;20013;-79
2021/03/25 10:40:37;;;;;;;35.15;22.63;;;;;;;;;;6184920;23;20411;-78
2021/03/25 10:43:05;;;;;;;34.85;20.58;;;;;;;;;;6184165;22;20438;-79
2021/03/25 10:45:35;;;;;;;39.03;21.75;;;;;;;;;;6184574;22;20083;-79
2021/03/25 10:48:15;;;;;;;42.78;25.33;;;;;;;;;;6186367;22;20088;-78
2021/03/25 10:50:47;;;;;;;45.70;26.10;;;;;;;;;;6187263;22;20308;-79
2021/03/25 10:53:22;;;;;;;47.22;26.77;;;;;;;;;;6190164;22;19997;-78
2021/03/25 10:55:50;;;;;;;44.47;25.37;;;;;;;;;;6188428;22;20005;-79
2021/03/25 10:58:27;;;;;;;41.35;25.42;;;;;;;;;;6184263;22;20013;-79
2021/03/25 11:01:07;;;;;;;44.03;26.42;;;;;;;;;;6173413;22;20096;-78
2021/03/25 11:03:36;;;;;;;41.95;25.20;;;;;;;;;;6185191;22;20042;-79
2021/03/25 11:06:03;;;;;;;44.03;24.10;;;;;;;;;;6183996;23;20002;-77
2021/03/25 11:08:40;;;;;;;43.28;22.90;;;;;;;;;;6183154;22;20046;-79
2021/03/25 11:11:17;;;;;;;34.75;21.00;;;;;;;;;;6185072;23;19997;-79
2021/03/25 11:13:44;;;;;;;32.70;19.15;;;;;;;;;;6182547;22;20365;-79
2021/03/25 11:16:18;;;;;;;31.02;22.08;;;;;;;;;;6182646;22;20011;-79
2021/03/25 11:18:54;;;;;;;36.38;20.83;;;;;;;;;;6183851;22;20415;-79
2021/03/25 11:21:29;;;;;;;28.50;18.58;;;;;;;;;;6186705;22;20009;-79
2021/03/25 11:24:16;;;;;;;35.92;19.10;;;;;;;;;;6185105;22;20426;-79
2021/03/25 11:26:42;;;;;;;35.85;22.48;;;;;;;;;;6186609;22;20009;-78
2021/03/25 11:29:09;;;;;;;31.85;21.50;;;;;;;;;;6190054;23;20430;-78
2021/03/25 11:31:36;;;;;;;31.88;21.00;;;;;;;;;;6193633;23;20001;-79
2021/03/25 11:34:02;;;;;;;30.90;19.67;;;;;;;;;;6190242;22;20006;-79
2021/03/25 11:36:37;;;;;;;32.92;17.73;;;;;;;;;;6166952;22;20068;-78
2021/03/25 11:39:11;;;;;;;25.73;15.20;;;;;;;;;;6184750;22;20331;-79
2021/03/25 11:41:37;;;;;;;27.50;16.73;;;;;;;;;;6192381;22;20005;-79
2021/03/25 11:44:05;;;;;;;19.90;13.07;;;;;;;;;;6193413;22;19997;-78
2021/03/25 11:46:31;;;;;;;28.20;14.27;;;;;;;;;;6185296;22;20013;-78
2021/03/25 11:48:59;;;;;;;30.73;13.23;;;;;;;;;;6189026;22;20084;-79
2021/03/25 11:51:40;;;;;;;25.52;14.52;;;;;;;;;;6188378;22;20009;-78
2021/03/25 11:54:18;;;;;;;28.35;13.10;;;;;;;;;;6190663;23;20015;-79
2021/03/25 11:56:49;;;;;;;27.58;12.85;;;;;;;;;;6189473;22;20006;-78
2021/03/25 11:59:15;;;;;;;31.23;13.07;;;;;;;;;;6189313;22;20012;-79
2021/03/25 12:01:42;;;;;;;30.13;11.93;;;;;;;;;;6184906;22;20016;-79
2021/03/25 12:04:17;;;;;;;26.98;11.57;;;;;;;;;;6192888;22;20327;-78
2021/03/25 12:07:02;;;;;;;24.98;10.98;;;;;;;;;;6192595;22;20010;-78
2021/03/25 12:09:28;;;;;;;;;;;;;;;;;;6203770;22;20001;-79
2021/03/25 12:11:54;;;;;;;26.35;11.73;;;;;;;;;;6312974;22;19889;-80
2021/03/25 12:14:24;;;;;;;25.38;11.50;;;;;;;;;;6206783;22;20016;-79
2021/03/25 12:17:03;;;;;;;24.88;11.23;;;;;;;;;;6206882;22;20024;-79
2021/03/25 12:19:33;;;;;;;20.88;11.25;;;;;;;;;;6203297;22;20009;-79
2021/03/25 12:21:59;;;;;;;20.35;10.98;;;;;;;;;;6190808;22;20033;-78
2021/03/25 12:24:25;;;;;;;31.83;10.20;;;;;;;;;;6190276;22;20001;-79
2021/03/25 12:26:52;;;;;;;22.02;10.80;;;;;;;;;;6192047;23;20005;-79
2021/03/25 12:29:18;;;;;;;19.45;9.82;;;;;;;;;;6188263;22;20403;-79
2021/03/25 12:31:44;;;;;;;23.98;9.63;;;;;;;;;;6294210;22;20452;-78
2021/03/25 12:34:11;;;;;;;20.88;10.25;;;;;;;;;;6319578;22;20013;-77
2021/03/25 12:39:45;;;;;;;30.02;10.63;;;;;;;;;;6351809;22;20002;-78
2021/03/25 12:42:14;;;;;;;21.08;9.35;;;;;;;;;;6295630;22;20014;-78
2021/03/25 12:44:41;;;;;;;24.65;9.45;;;;;;;;;;6324600;22;20013;-79
2021/03/25 12:47:11;;;;;;;25.25;11.88;;;;;;;;;;6326144;22;20011;-79
2021/03/25 12:49:37;;;;;;;17.30;8.18;;;;;;;;;;6356807;22;20003;-78
2021/03/25 12:52:03;;;;;;;15.95;7.00;;;;;;;;;;6335266;22;19999;-78
2021/03/25 12:54:29;;;;;;;17.77;6.90;;;;;;;;;;6336831;22;20140;-78
2021/03/25 12:57:00;;;;;;;11.00;5.63;;;;;;;;;;6357169;22;19995;-77
2021/03/25 12:59:26;;;;;;;14.18;5.47;;;;;;;;;;6330661;22;20022;-78
2021/03/25 13:08:01;;;;;;;14.68;4.00;;;;;;;;;;6357904;22;20013;-79
2021/03/25 13:10:29;;;;;;;8.60;4.63;;;;;;;;;;6358608;22;20023;-78
2021/03/25 13:12:57;;;;;;;12.13;4.65;;;;;;;;;;6328128;22;19999;-79
2021/03/25 13:15:25;;;;;;;10.57;3.30;;;;;;;;;;6328745;22;20003;-78
2021/03/25 13:17:51;;;;;;;11.88;3.03;;;;;;;;;;6325787;22;20085;-78
2021/03/25 13:20:19;;;;;;;9.82;2.20;;;;;;;;;;6336217;22;20007;-78
2021/03/25 13:22:45;;;;;;;9.88;2.50;;;;;;;;;;6334734;22;20003;-78
2021/03/25 13:25:12;;;;;;;12.48;2.15;;;;;;;;;;6333240;22;20029;-78
2021/03/25 13:31:03;;;;;;;6.32;1.63;;;;;;;;;;6352813;22;20040;-78
2021/03/25 13:33:34;;;;;;;8.52;1.75;;;;;;;;;;6322426;22;20014;-79
2021/03/25 13:36:00;;;;;;;8.07;1.10;;;;;;;;;;6321576;22;20003;-78
2021/03/25 13:38:27;;;;;;;12.15;1.67;;;;;;;;;;6333608;22;20064;-79
2021/03/25 14:11:40;;;;;;;4.38;1.10;;;;;;;;;;6213094;23;20060;-79
2021/03/25 14:14:06;;;;;;;3.90;0.95;;;;;;;;;;6192924;22;20005;-78
2021/03/25 14:16:32;;;;;;;9.43;1.17;;;;;;;;;;6215667;22;20015;-77
2021/03/25 14:18:59;;;;;;;6.97;1.50;;;;;;;;;;6188076;22;20295;-76
2021/03/25 14:21:25;;;;;;;3.28;0.70;;;;;;;;;;6214171;22;20005;-77
2021/03/25 14:23:51;;;;;;;6.65;1.17;;;;;;;;;;6189442;22;20013;-77
2021/03/25 14:26:18;;;;;;;9.55;1.80;;;;;;;;;;6188718;22;20013;-77
2021/03/25 14:28:44;;;;;;;6.95;0.88;;;;;;;;;;6215053;22;20000;-77
2021/03/25 14:31:10;;;;;;;3.83;1.08;;;;;;;;;;6215573;22;20016;-78
2021/03/25 14:33:36;;;;;;;11.65;2.20;;;;;;;;;;6188652;22;20132;-78
2021/03/25 14:36:02;;;;;;;3.00;0.75;;;;;;;;;;6214987;22;20036;-78
2021/03/25 14:38:28;;;;;;;3.97;1.02;;;;;;;;;;6216721;22;20426;-76
2021/03/25 14:40:55;;;;;;;5.00;1.15;;;;;;;;;;6214112;22;20001;-79
2021/03/25 14:43:22;;;;;;;3.17;1.00;;;;;;;;;;6212447;22;20027;-78
2021/03/25 14:45:49;;;;;;;10.73;1.40;;;;;;;;;;6214979;22;19996;-79
2021/03/25 14:48:16;;;;;;;3.03;0.82;;;;;;;;;;6214171;23;20023;-79
2021/03/25 14:50:42;;;;;;;3.40;1.02;;;;;;;;;;6220099;22;20357;-78
2021/03/25 14:53:09;;;;;;;4.68;1.08;;;;;;;;;;6190596;22;20046;-81
2021/03/25 14:55:35;;;;;;;6.75;0.90;;;;;;;;;;6218540;22;20001;-77
2021/03/25 14:58:01;;;;;;;4.55;0.70;;;;;;;;;;6214353;22;20008;-78
2021/03/25 15:00:29;;;;;;;3.67;0.93;;;;;;;;;;6190099;22;20009;-79
2021/03/25 15:02:55;;;;;;;4.35;0.75;;;;;;;;;;6217378;22;20080;-77
2021/03/25 15:05:22;;;;;;;3.00;0.70;;;;;;;;;;6218247;22;20049;-77
2021/03/25 15:07:48;;;;;;;5.75;0.80;;;;;;;;;;6219162;22;20036;-78
2021/03/25 15:10:33;;;;;;;5.72;0.77;;;;;;;;;;6220384;22;20043;-78
2021/03/25 15:13:00;;;;;;;4.25;0.60;;;;;;;;;;6224411;22;20013;-77
2021/03/25 15:15:28;;;;;;;3.63;0.70;;;;;;;;;;6228019;23;20030;-78
2021/03/25 15:17:55;;;;;;;2.20;0.65;;;;;;;;;;6228186;22;20032;-78
2021/03/25 15:20:23;;;;;;;5.32;0.98;;;;;;;;;;6226913;22;20007;-79
2021/03/25 15:22:49;;;;;;;6.13;1.42;;;;;;;;;;6226853;22;20045;-78
2021/03/25 15:25:16;;;;;;;2.90;0.80;;;;;;;;;;6198820;22;20046;-78
2021/03/25 15:27:42;;;;;;;5.95;0.80;;;;;;;;;;6224491;23;20012;-78
2021/03/25 15:30:09;;;;;;;4.80;0.80;;;;;;;;;;6225220;22;20007;-78
2021/03/25 15:32:35;;;;;;;4.35;0.85;;;;;;;;;;6224682;23;20005;-78
2021/03/25 15:35:01;;;;;;;4.35;0.70;;;;;;;;;;6219564;23;20012;-78
2021/03/25 15:37:27;;;;;;;4.53;0.80;;;;;;;;;;6196337;22;20403;-77
2021/03/25 15:39:53;;;;;;;2.38;0.50;;;;;;;;;;6221958;23;20008;-77
2021/03/25 15:42:19;;;;;;;5.18;0.80;;;;;;;;;;6223506;22;20005;-77
2021/03/25 15:44:45;;;;;;;3.97;0.65;;;;;;;;;;6220349;23;20028;-77
2021/03/25 15:47:13;;;;;;;3.25;0.70;;;;;;;;;;6219673;22;20048;-77
2021/03/25 15:49:39;;;;;;;9.75;1.10;;;;;;;;;;6217602;22;20001;-76
2021/03/25 15:52:05;;;;;;;3.72;1.13;;;;;;;;;;6219054;22;20009;-77
2021/03/25 15:54:31;;;;;;;3.80;0.70;;;;;;;;;;6218897;23;20009;-77
2021/03/25 15:56:57;;;;;;;5.30;1.02;;;;;;;;;;6220528;23;20005;-77
2021/03/25 15:59:27;;;;;;;4.47;0.93;;;;;;;;;;6191417;22;20043;-78
2021/03/25 16:01:53;;;;;;;4.80;1.13;;;;;;;;;;6191834;22;20344;-77
2021/03/25 16:04:19;;;;;;;5.13;1.10;;;;;;;;;;6216491;23;20032;-79
2021/03/25 16:06:45;;;;;;;4.25;0.65;;;;;;;;;;6216271;23;20008;-77